sensor_id;sensor_type;location;lat;lon;timestamp;P1;durP1;ratioP1;P2;durP2;ratioP2
73508;SDS011;72120;54.964;73.444;2023-08-20T00:01:29;7.35;;;4.90;;
73508;SDS011;72120;54.964;73.444;2023-08-20T00:03:55;7.97;;;4.90;;
73508;SDS011;72120;54.964;73.444;2023-08-20T00:06:23;7.68;;;5.13;;
73508;SDS011;72120;54.964;73.444;2023-08-20T00:08:49;6.80;;;4.88;;
73508;SDS011;72120;54.964;73.444;2023-08-20T00:11:16;7.88;;;4.40;;
73508;SDS011;72120;54.964;73.444;2023-08-20T00:13:42;6.88;;;4.68;;
73508;SDS011;72120;54.964;73.444;2023-08-20T00:16:11;9.13;;;5.30;;
73508;SDS011;72120;54.964;73.444;2023-08-20T00:18:38;7.43;;;4.53;;
73508;SDS011;72120;54.964;73.444;2023-08-20T00:21:05;9.30;;;4.60;;
73508;SDS011;72120;54.964;73.444;2023-08-20T00:23:32;6.85;;;4.32;;
73508;SDS011;72120;54.964;73.444;2023-08-20T00:28:25;5.70;;;4.25;;
73508;SDS011;72120;54.964;73.444;2023-08-20T00:30:51;6.85;;;4.72;;
73508;SDS011;72120;54.964;73.444;2023-08-20T00:33:17;6.63;;;4.00;;
73508;SDS011;72120;54.964;73.444;2023-08-20T00:38:09;9.45;;;4.25;;
73508;SDS011;72120;54.964;73.444;2023-08-20T00:40:35;12.73;;;5.22;;
73508;SDS011;72120;54.964;73.444;2023-08-20T00:43:01;11.80;;;6.50;;
73508;SDS011;72120;54.964;73.444;2023-08-20T00:45:32;7.40;;;5.40;;
73508;SDS011;72120;54.964;73.444;2023-08-20T00:47:58;8.88;;;4.70;;
73508;SDS011;72120;54.964;73.444;2023-08-20T00:50:26;11.98;;;5.18;;
73508;SDS011;72120;54.964;73.444;2023-08-20T00:52:52;12.40;;;4.50;;
73508;SDS011;72120;54.964;73.444;2023-08-20T00:55:20;7.53;;;4.13;;
73508;SDS011;72120;54.964;73.444;2023-08-20T00:57:46;7.28;;;4.25;;
73508;SDS011;72120;54.964;73.444;2023-08-20T01:00:13;8.88;;;4.20;;
73508;SDS011;72120;54.964;73.444;2023-08-20T01:02:39;6.93;;;4.38;;
73508;SDS011;72120;54.964;73.444;2023-08-20T01:05:09;9.25;;;4.25;;
73508;SDS011;72120;54.964;73.444;2023-08-20T01:12:55;9.55;;;4.10;;
73508;SDS011;72120;54.964;73.444;2023-08-20T01:15:23;8.25;;;4.20;;
73508;SDS011;72120;54.964;73.444;2023-08-20T01:17:50;10.68;;;4.40;;
73508;SDS011;72120;54.964;73.444;2023-08-20T01:30:45;9.63;;;4.25;;
73508;SDS011;72120;54.964;73.444;2023-08-20T01:33:12;5.85;;;4.10;;
73508;SDS011;72120;54.964;73.444;2023-08-20T01:35:40;6.70;;;3.78;;
73508;SDS011;72120;54.964;73.444;2023-08-20T01:38:14;9.07;;;3.97;;
73508;SDS011;72120;54.964;73.444;2023-08-20T01:40:40;7.78;;;3.90;;
73508;SDS011;72120;54.964;73.444;2023-08-20T01:43:07;7.95;;;4.25;;
73508;SDS011;72120;54.964;73.444;2023-08-20T01:45:37;7.68;;;3.53;;
73508;SDS011;72120;54.964;73.444;2023-08-20T01:50:30;7.32;;;3.95;;
73508;SDS011;72120;54.964;73.444;2023-08-20T01:52:56;9.80;;;3.95;;
73508;SDS011;72120;54.964;73.444;2023-08-20T01:55:22;8.43;;;3.80;;
73508;SDS011;72120;54.964;73.444;2023-08-20T01:57:49;8.60;;;4.13;;
73508;SDS011;72120;54.964;73.444;2023-08-20T02:00:15;7.20;;;3.75;;
73508;SDS011;72120;54.964;73.444;2023-08-20T02:02:41;5.60;;;3.83;;
73508;SDS011;72120;54.964;73.444;2023-08-20T02:07:33;7.03;;;3.95;;
73508;SDS011;72120;54.964;73.444;2023-08-20T02:10:01;8.48;;;3.92;;
73508;SDS011;72120;54.964;73.444;2023-08-20T02:12:29;9.07;;;4.15;;
73508;SDS011;72120;54.964;73.444;2023-08-20T02:14:55;8.50;;;4.03;;
73508;SDS011;72120;54.964;73.444;2023-08-20T02:17:24;6.38;;;4.00;;
73508;SDS011;72120;54.964;73.444;2023-08-20T02:19:50;7.18;;;3.92;;
73508;SDS011;72120;54.964;73.444;2023-08-20T02:22:16;7.18;;;3.85;;
73508;SDS011;72120;54.964;73.444;2023-08-20T02:24:43;6.63;;;3.80;;
73508;SDS011;72120;54.964;73.444;2023-08-20T02:27:09;5.28;;;3.20;;
73508;SDS011;72120;54.964;73.444;2023-08-20T02:29:35;9.07;;;3.90;;
73508;SDS011;72120;54.964;73.444;2023-08-20T02:32:01;5.43;;;3.40;;
73508;SDS011;72120;54.964;73.444;2023-08-20T02:34:29;5.65;;;3.70;;
73508;SDS011;72120;54.964;73.444;2023-08-20T02:36:55;7.47;;;3.72;;
73508;SDS011;72120;54.964;73.444;2023-08-20T02:39:22;7.07;;;4.00;;
73508;SDS011;72120;54.964;73.444;2023-08-20T02:41:49;8.32;;;3.80;;
73508;SDS011;72120;54.964;73.444;2023-08-20T02:44:16;9.82;;;3.35;;
73508;SDS011;72120;54.964;73.444;2023-08-20T02:46:42;9.95;;;3.83;;
73508;SDS011;72120;54.964;73.444;2023-08-20T02:49:10;8.82;;;3.72;;
73508;SDS011;72120;54.964;73.444;2023-08-20T02:51:36;8.60;;;4.43;;
73508;SDS011;72120;54.964;73.444;2023-08-20T02:56:29;6.22;;;3.33;;
73508;SDS011;72120;54.964;73.444;2023-08-20T02:58:55;9.32;;;3.58;;
73508;SDS011;72120;54.964;73.444;2023-08-20T03:01:22;4.03;;;2.92;;
73508;SDS011;72120;54.964;73.444;2023-08-20T03:03:50;8.43;;;3.35;;
73508;SDS011;72120;54.964;73.444;2023-08-20T03:06:16;5.70;;;3.42;;
73508;SDS011;72120;54.964;73.444;2023-08-20T03:11:08;5.97;;;2.80;;
73508;SDS011;72120;54.964;73.444;2023-08-20T03:13:36;7.30;;;3.63;;
73508;SDS011;72120;54.964;73.444;2023-08-20T03:16:03;6.43;;;3.35;;
73508;SDS011;72120;54.964;73.444;2023-08-20T03:18:29;4.75;;;3.33;;
73508;SDS011;72120;54.964;73.444;2023-08-20T03:20:55;6.88;;;3.20;;
73508;SDS011;72120;54.964;73.444;2023-08-20T03:23:23;6.60;;;3.20;;
73508;SDS011;72120;54.964;73.444;2023-08-20T03:25:49;7.55;;;3.20;;
73508;SDS011;72120;54.964;73.444;2023-08-20T03:28:17;7.95;;;3.55;;
73508;SDS011;72120;54.964;73.444;2023-08-20T03:30:44;6.93;;;3.10;;
73508;SDS011;72120;54.964;73.444;2023-08-20T03:33:13;8.52;;;3.50;;
73508;SDS011;72120;54.964;73.444;2023-08-20T03:35:40;7.10;;;3.35;;
73508;SDS011;72120;54.964;73.444;2023-08-20T03:38:06;4.05;;;2.85;;
73508;SDS011;72120;54.964;73.444;2023-08-20T03:40:32;6.30;;;3.28;;
73508;SDS011;72120;54.964;73.444;2023-08-20T03:42:58;6.70;;;2.95;;
73508;SDS011;72120;54.964;73.444;2023-08-20T03:45:24;7.10;;;3.10;;
73508;SDS011;72120;54.964;73.444;2023-08-20T03:47:52;6.68;;;3.42;;
73508;SDS011;72120;54.964;73.444;2023-08-20T03:50:19;6.10;;;3.00;;
73508;SDS011;72120;54.964;73.444;2023-08-20T03:55:11;5.13;;;2.78;;
73508;SDS011;72120;54.964;73.444;2023-08-20T03:57:37;7.80;;;3.53;;
73508;SDS011;72120;54.964;73.444;2023-08-20T04:00:04;11.85;;;6.60;;
73508;SDS011;72120;54.964;73.444;2023-08-20T04:02:41;7.15;;;3.30;;
73508;SDS011;72120;54.964;73.444;2023-08-20T04:07:34;6.40;;;3.10;;
73508;SDS011;72120;54.964;73.444;2023-08-20T04:10:01;7.72;;;3.38;;
73508;SDS011;72120;54.964;73.444;2023-08-20T04:12:29;7.35;;;3.17;;
73508;SDS011;72120;54.964;73.444;2023-08-20T04:14:56;6.78;;;3.15;;
73508;SDS011;72120;54.964;73.444;2023-08-20T04:17:22;6.90;;;2.97;;
73508;SDS011;72120;54.964;73.444;2023-08-20T04:19:51;7.38;;;3.00;;
73508;SDS011;72120;54.964;73.444;2023-08-20T04:22:17;4.15;;;3.03;;
73508;SDS011;72120;54.964;73.444;2023-08-20T04:24:43;5.82;;;3.33;;
73508;SDS011;72120;54.964;73.444;2023-08-20T04:27:09;4.15;;;2.90;;
73508;SDS011;72120;54.964;73.444;2023-08-20T04:29:39;4.65;;;2.95;;
73508;SDS011;72120;54.964;73.444;2023-08-20T04:32:05;6.53;;;2.67;;
73508;SDS011;72120;54.964;73.444;2023-08-20T04:36:59;6.35;;;3.50;;
73508;SDS011;72120;54.964;73.444;2023-08-20T04:39:26;4.25;;;2.80;;
73508;SDS011;72120;54.964;73.444;2023-08-20T04:41:55;6.72;;;3.13;;
73508;SDS011;72120;54.964;73.444;2023-08-20T04:44:23;4.65;;;2.85;;
73508;SDS011;72120;54.964;73.444;2023-08-20T04:46:52;5.78;;;3.15;;
73508;SDS011;72120;54.964;73.444;2023-08-20T04:49:19;6.05;;;2.88;;
73508;SDS011;72120;54.964;73.444;2023-08-20T04:51:45;4.15;;;2.63;;
73508;SDS011;72120;54.964;73.444;2023-08-20T04:54:11;5.78;;;3.05;;
73508;SDS011;72120;54.964;73.444;2023-08-20T04:56:37;4.72;;;2.92;;
73508;SDS011;72120;54.964;73.444;2023-08-20T04:59:03;6.35;;;2.85;;
73508;SDS011;72120;54.964;73.444;2023-08-20T05:01:48;4.78;;;3.03;;
73508;SDS011;72120;54.964;73.444;2023-08-20T05:04:24;4.38;;;3.00;;
73508;SDS011;72120;54.964;73.444;2023-08-20T05:06:50;5.13;;;2.78;;
73508;SDS011;72120;54.964;73.444;2023-08-20T05:09:16;5.75;;;2.83;;
73508;SDS011;72120;54.964;73.444;2023-08-20T05:11:43;5.60;;;2.63;;
73508;SDS011;72120;54.964;73.444;2023-08-20T05:14:09;7.03;;;2.95;;
73508;SDS011;72120;54.964;73.444;2023-08-20T05:16:37;5.60;;;3.00;;
73508;SDS011;72120;54.964;73.444;2023-08-20T05:19:03;5.18;;;2.83;;
73508;SDS011;72120;54.964;73.444;2023-08-20T05:23:55;8.07;;;2.85;;
73508;SDS011;72120;54.964;73.444;2023-08-20T05:26:22;5.20;;;3.15;;
73508;SDS011;72120;54.964;73.444;2023-08-20T05:28:48;6.22;;;2.97;;
73508;SDS011;72120;54.964;73.444;2023-08-20T05:31:14;5.65;;;2.90;;
73508;SDS011;72120;54.964;73.444;2023-08-20T05:33:40;6.13;;;2.95;;
73508;SDS011;72120;54.964;73.444;2023-08-20T05:36:07;7.43;;;3.17;;
73508;SDS011;72120;54.964;73.444;2023-08-20T05:38:34;4.57;;;3.08;;
73508;SDS011;72120;54.964;73.444;2023-08-20T05:41:00;12.02;;;3.50;;
73508;SDS011;72120;54.964;73.444;2023-08-20T05:43:26;6.57;;;3.28;;
73508;SDS011;72120;54.964;73.444;2023-08-20T05:48:21;9.25;;;3.50;;
73508;SDS011;72120;54.964;73.444;2023-08-20T05:53:15;15.10;;;3.13;;
73508;SDS011;72120;54.964;73.444;2023-08-20T05:55:42;6.03;;;2.70;;
73508;SDS011;72120;54.964;73.444;2023-08-20T05:58:09;9.27;;;2.88;;
73508;SDS011;72120;54.964;73.444;2023-08-20T06:00:35;4.95;;;2.50;;
73508;SDS011;72120;54.964;73.444;2023-08-20T06:03:01;4.85;;;2.25;;
73508;SDS011;72120;54.964;73.444;2023-08-20T06:05:28;6.65;;;2.80;;
73508;SDS011;72120;54.964;73.444;2023-08-20T06:07:58;3.67;;;2.47;;
73508;SDS011;72120;54.964;73.444;2023-08-20T06:10:25;9.02;;;2.78;;
73508;SDS011;72120;54.964;73.444;2023-08-20T06:12:52;8.63;;;3.05;;
73508;SDS011;72120;54.964;73.444;2023-08-20T06:15:18;6.22;;;2.83;;
73508;SDS011;72120;54.964;73.444;2023-08-20T06:17:44;5.90;;;3.05;;
73508;SDS011;72120;54.964;73.444;2023-08-20T06:20:11;5.63;;;2.65;;
73508;SDS011;72120;54.964;73.444;2023-08-20T06:22:37;10.52;;;3.20;;
73508;SDS011;72120;54.964;73.444;2023-08-20T06:25:04;4.88;;;2.55;;
73508;SDS011;72120;54.964;73.444;2023-08-20T06:27:30;5.72;;;3.47;;
73508;SDS011;72120;54.964;73.444;2023-08-20T06:29:56;7.60;;;3.10;;
73508;SDS011;72120;54.964;73.444;2023-08-20T06:32:25;14.73;;;2.72;;
73508;SDS011;72120;54.964;73.444;2023-08-20T06:34:51;4.30;;;2.80;;
73508;SDS011;72120;54.964;73.444;2023-08-20T06:37:18;8.30;;;3.00;;
73508;SDS011;72120;54.964;73.444;2023-08-20T06:39:44;8.18;;;3.00;;
73508;SDS011;72120;54.964;73.444;2023-08-20T06:42:10;5.43;;;2.80;;
73508;SDS011;72120;54.964;73.444;2023-08-20T06:44:36;4.35;;;2.58;;
73508;SDS011;72120;54.964;73.444;2023-08-20T06:47:02;4.78;;;2.80;;
73508;SDS011;72120;54.964;73.444;2023-08-20T06:49:28;9.50;;;2.92;;
73508;SDS011;72120;54.964;73.444;2023-08-20T06:51:54;6.60;;;2.65;;
73508;SDS011;72120;54.964;73.444;2023-08-20T06:54:21;4.10;;;2.42;;
73508;SDS011;72120;54.964;73.444;2023-08-20T06:56:48;4.45;;;2.80;;
73508;SDS011;72120;54.964;73.444;2023-08-20T06:59:14;5.35;;;2.38;;
73508;SDS011;72120;54.964;73.444;2023-08-20T07:01:40;4.10;;;3.00;;
73508;SDS011;72120;54.964;73.444;2023-08-20T07:04:06;4.13;;;2.50;;
73508;SDS011;72120;54.964;73.444;2023-08-20T07:08:58;3.90;;;2.25;;
73508;SDS011;72120;54.964;73.444;2023-08-20T07:11:24;8.85;;;2.45;;
73508;SDS011;72120;54.964;73.444;2023-08-20T07:13:51;6.32;;;2.30;;
73508;SDS011;72120;54.964;73.444;2023-08-20T07:16:17;6.07;;;1.98;;
73508;SDS011;72120;54.964;73.444;2023-08-20T07:18:43;3.72;;;2.15;;
73508;SDS011;72120;54.964;73.444;2023-08-20T07:21:09;5.93;;;2.42;;
73508;SDS011;72120;54.964;73.444;2023-08-20T07:23:35;3.88;;;2.00;;
73508;SDS011;72120;54.964;73.444;2023-08-20T07:26:05;4.55;;;2.20;;
73508;SDS011;72120;54.964;73.444;2023-08-20T07:28:33;5.18;;;2.30;;
73508;SDS011;72120;54.964;73.444;2023-08-20T07:31:19;4.93;;;2.20;;
73508;SDS011;72120;54.964;73.444;2023-08-20T07:33:52;4.07;;;2.25;;
73508;SDS011;72120;54.964;73.444;2023-08-20T07:36:21;3.22;;;2.40;;
73508;SDS011;72120;54.964;73.444;2023-08-20T07:38:47;4.47;;;2.50;;
73508;SDS011;72120;54.964;73.444;2023-08-20T07:41:14;7.90;;;2.70;;
73508;SDS011;72120;54.964;73.444;2023-08-20T07:46:07;5.57;;;2.67;;
73508;SDS011;72120;54.964;73.444;2023-08-20T07:48:34;5.25;;;2.58;;
73508;SDS011;72120;54.964;73.444;2023-08-20T07:51:01;3.97;;;2.50;;
73508;SDS011;72120;54.964;73.444;2023-08-20T07:53:28;7.75;;;2.40;;
73508;SDS011;72120;54.964;73.444;2023-08-20T07:55:55;4.63;;;2.03;;
73508;SDS011;72120;54.964;73.444;2023-08-20T07:58:23;7.93;;;2.45;;
73508;SDS011;72120;54.964;73.444;2023-08-20T08:03:15;7.75;;;2.35;;
73508;SDS011;72120;54.964;73.444;2023-08-20T08:05:46;5.88;;;2.95;;
73508;SDS011;72120;54.964;73.444;2023-08-20T08:08:15;6.35;;;2.53;;
73508;SDS011;72120;54.964;73.444;2023-08-20T08:10:43;6.88;;;2.53;;
73508;SDS011;72120;54.964;73.444;2023-08-20T08:13:13;6.80;;;2.22;;
73508;SDS011;72120;54.964;73.444;2023-08-20T08:15:40;8.80;;;3.15;;
73508;SDS011;72120;54.964;73.444;2023-08-20T08:18:06;10.63;;;2.80;;
73508;SDS011;72120;54.964;73.444;2023-08-20T08:20:33;6.03;;;2.33;;
73508;SDS011;72120;54.964;73.444;2023-08-20T08:23:00;4.53;;;2.22;;
73508;SDS011;72120;54.964;73.444;2023-08-20T08:25:26;4.40;;;2.30;;
73508;SDS011;72120;54.964;73.444;2023-08-20T08:30:18;6.32;;;2.30;;
73508;SDS011;72120;54.964;73.444;2023-08-20T08:35:11;8.95;;;2.60;;
73508;SDS011;72120;54.964;73.444;2023-08-20T08:37:37;13.40;;;2.63;;
73508;SDS011;72120;54.964;73.444;2023-08-20T08:42:34;5.10;;;2.60;;
73508;SDS011;72120;54.964;73.444;2023-08-20T08:45:01;4.00;;;2.38;;
73508;SDS011;72120;54.964;73.444;2023-08-20T08:47:29;5.40;;;2.40;;
73508;SDS011;72120;54.964;73.444;2023-08-20T08:52:24;5.93;;;2.45;;
73508;SDS011;72120;54.964;73.444;2023-08-20T08:54:52;6.00;;;2.40;;
73508;SDS011;72120;54.964;73.444;2023-08-20T08:57:19;5.57;;;1.75;;
73508;SDS011;72120;54.964;73.444;2023-08-20T08:59:45;4.70;;;2.45;;
73508;SDS011;72120;54.964;73.444;2023-08-20T09:02:12;4.80;;;2.17;;
73508;SDS011;72120;54.964;73.444;2023-08-20T09:04:39;10.32;;;2.95;;
73508;SDS011;72120;54.964;73.444;2023-08-20T09:07:14;13.05;;;2.50;;
73508;SDS011;72120;54.964;73.444;2023-08-20T09:09:44;4.90;;;2.10;;
73508;SDS011;72120;54.964;73.444;2023-08-20T09:14:48;14.55;;;2.60;;
73508;SDS011;72120;54.964;73.444;2023-08-20T09:17:16;6.00;;;2.60;;
73508;SDS011;72120;54.964;73.444;2023-08-20T09:19:47;8.45;;;2.38;;
73508;SDS011;72120;54.964;73.444;2023-08-20T09:22:16;4.55;;;2.17;;
73508;SDS011;72120;54.964;73.444;2023-08-20T09:24:45;4.55;;;2.15;;
73508;SDS011;72120;54.964;73.444;2023-08-20T09:27:12;3.40;;;1.90;;
73508;SDS011;72120;54.964;73.444;2023-08-20T09:29:45;5.75;;;2.17;;
73508;SDS011;72120;54.964;73.444;2023-08-20T09:32:22;9.45;;;2.47;;
73508;SDS011;72120;54.964;73.444;2023-08-20T09:34:51;4.35;;;2.30;;
73508;SDS011;72120;54.964;73.444;2023-08-20T09:37:19;5.70;;;2.58;;
73508;SDS011;72120;54.964;73.444;2023-08-20T09:39:46;4.03;;;2.13;;
73508;SDS011;72120;54.964;73.444;2023-08-20T09:42:13;9.07;;;3.78;;
73508;SDS011;72120;54.964;73.444;2023-08-20T09:44:41;4.50;;;2.38;;
73508;SDS011;72120;54.964;73.444;2023-08-20T09:47:10;4.50;;;2.85;;
73508;SDS011;72120;54.964;73.444;2023-08-20T09:49:41;6.13;;;2.75;;
73508;SDS011;72120;54.964;73.444;2023-08-20T09:52:10;6.10;;;2.38;;
73508;SDS011;72120;54.964;73.444;2023-08-20T09:57:38;6.53;;;3.50;;
73508;SDS011;72120;54.964;73.444;2023-08-20T10:00:09;5.85;;;2.33;;
73508;SDS011;72120;54.964;73.444;2023-08-20T10:02:39;4.80;;;1.90;;
73508;SDS011;72120;54.964;73.444;2023-08-20T10:05:09;6.65;;;2.10;;
73508;SDS011;72120;54.964;73.444;2023-08-20T10:07:36;4.80;;;2.50;;
73508;SDS011;72120;54.964;73.444;2023-08-20T10:10:03;3.33;;;2.08;;
73508;SDS011;72120;54.964;73.444;2023-08-20T10:12:31;4.72;;;2.13;;
73508;SDS011;72120;54.964;73.444;2023-08-20T10:14:58;8.75;;;4.63;;
73508;SDS011;72120;54.964;73.444;2023-08-20T10:17:32;2.90;;;1.67;;
73508;SDS011;72120;54.964;73.444;2023-08-20T10:20:00;9.35;;;1.92;;
73508;SDS011;72120;54.964;73.444;2023-08-20T10:22:41;11.63;;;4.85;;
73508;SDS011;72120;54.964;73.444;2023-08-20T10:25:10;5.10;;;2.20;;
73508;SDS011;72120;54.964;73.444;2023-08-20T10:27:39;6.45;;;2.40;;
73508;SDS011;72120;54.964;73.444;2023-08-20T10:30:39;3.50;;;2.30;;
73508;SDS011;72120;54.964;73.444;2023-08-20T10:32:58;10.75;;;3.72;;
73508;SDS011;72120;54.964;73.444;2023-08-20T10:36:07;5.80;;;2.28;;
73508;SDS011;72120;54.964;73.444;2023-08-20T10:38:16;5.47;;;1.67;;
73508;SDS011;72120;54.964;73.444;2023-08-20T10:43:28;3.30;;;1.70;;
73508;SDS011;72120;54.964;73.444;2023-08-20T10:46:16;3.72;;;1.85;;
73508;SDS011;72120;54.964;73.444;2023-08-20T10:48:44;4.75;;;2.03;;
73508;SDS011;72120;54.964;73.444;2023-08-20T10:51:25;5.72;;;2.17;;
73508;SDS011;72120;54.964;73.444;2023-08-20T10:54:02;3.35;;;1.88;;
73508;SDS011;72120;54.964;73.444;2023-08-20T10:56:46;6.70;;;2.47;;
73508;SDS011;72120;54.964;73.444;2023-08-20T10:59:21;5.13;;;2.22;;
73508;SDS011;72120;54.964;73.444;2023-08-20T11:01:48;9.13;;;2.80;;
73508;SDS011;72120;54.964;73.444;2023-08-20T11:04:17;3.70;;;1.98;;
73508;SDS011;72120;54.964;73.444;2023-08-20T11:06:44;3.97;;;2.00;;
73508;SDS011;72120;54.964;73.444;2023-08-20T11:09:11;6.63;;;1.88;;
73508;SDS011;72120;54.964;73.444;2023-08-20T11:11:39;8.93;;;2.10;;
73508;SDS011;72120;54.964;73.444;2023-08-20T11:14:07;8.45;;;2.30;;
73508;SDS011;72120;54.964;73.444;2023-08-20T11:16:38;5.43;;;2.08;;
73508;SDS011;72120;54.964;73.444;2023-08-20T11:19:04;5.95;;;2.33;;
73508;SDS011;72120;54.964;73.444;2023-08-20T11:21:34;6.57;;;2.22;;
73508;SDS011;72120;54.964;73.444;2023-08-20T11:24:05;3.80;;;2.00;;
73508;SDS011;72120;54.964;73.444;2023-08-20T11:26:34;6.70;;;2.42;;
73508;SDS011;72120;54.964;73.444;2023-08-20T11:30:03;4.07;;;2.25;;
73508;SDS011;72120;54.964;73.444;2023-08-20T13:35:42;8.38;;;2.80;;
73508;SDS011;72120;54.964;73.444;2023-08-20T13:38:08;10.60;;;3.28;;
73508;SDS011;72120;54.964;73.444;2023-08-20T13:40:34;13.73;;;3.33;;
73508;SDS011;72120;54.964;73.444;2023-08-20T13:43:01;7.47;;;3.05;;
73508;SDS011;72120;54.964;73.444;2023-08-20T13:45:29;7.30;;;2.97;;
73508;SDS011;72120;54.964;73.444;2023-08-20T13:47:56;7.10;;;3.08;;
73508;SDS011;72120;54.964;73.444;2023-08-20T13:50:22;8.73;;;3.10;;
73508;SDS011;72120;54.964;73.444;2023-08-20T13:52:53;6.13;;;2.78;;
73508;SDS011;72120;54.964;73.444;2023-08-20T13:55:19;8.32;;;3.30;;
73508;SDS011;72120;54.964;73.444;2023-08-20T13:57:46;13.52;;;3.63;;
73508;SDS011;72120;54.964;73.444;2023-08-20T14:00:14;10.88;;;3.13;;
73508;SDS011;72120;54.964;73.444;2023-08-20T14:05:06;7.60;;;3.05;;
73508;SDS011;72120;54.964;73.444;2023-08-20T14:07:33;10.60;;;3.50;;
73508;SDS011;72120;54.964;73.444;2023-08-20T14:10:00;11.00;;;3.80;;
73508;SDS011;72120;54.964;73.444;2023-08-20T14:12:27;10.43;;;4.00;;
73508;SDS011;72120;54.964;73.444;2023-08-20T14:14:53;14.43;;;4.70;;
73508;SDS011;72120;54.964;73.444;2023-08-20T14:17:19;12.10;;;4.28;;
73508;SDS011;72120;54.964;73.444;2023-08-20T14:19:46;10.60;;;4.30;;
73508;SDS011;72120;54.964;73.444;2023-08-20T14:22:12;14.00;;;5.72;;
73508;SDS011;72120;54.964;73.444;2023-08-20T14:24:38;9.45;;;4.70;;
73508;SDS011;72120;54.964;73.444;2023-08-20T14:27:04;10.43;;;4.40;;
73508;SDS011;72120;54.964;73.444;2023-08-20T14:29:33;19.02;;;4.82;;
73508;SDS011;72120;54.964;73.444;2023-08-20T14:31:59;15.57;;;4.78;;
73508;SDS011;72120;54.964;73.444;2023-08-20T14:34:25;10.15;;;4.13;;
73508;SDS011;72120;54.964;73.444;2023-08-20T14:36:51;11.73;;;4.47;;
73508;SDS011;72120;54.964;73.444;2023-08-20T14:39:18;10.52;;;4.35;;
73508;SDS011;72120;54.964;73.444;2023-08-20T14:41:44;8.63;;;4.13;;
73508;SDS011;72120;54.964;73.444;2023-08-20T14:44:10;11.02;;;4.53;;
73508;SDS011;72120;54.964;73.444;2023-08-20T14:49:04;11.80;;;4.05;;
73508;SDS011;72120;54.964;73.444;2023-08-20T14:51:30;11.23;;;4.82;;
73508;SDS011;72120;54.964;73.444;2023-08-20T14:53:56;14.15;;;4.07;;
73508;SDS011;72120;54.964;73.444;2023-08-20T14:56:22;14.05;;;5.32;;
73508;SDS011;72120;54.964;73.444;2023-08-20T14:58:50;6.45;;;3.90;;
73508;SDS011;72120;54.964;73.444;2023-08-20T15:01:17;13.82;;;4.78;;
73508;SDS011;72120;54.964;73.444;2023-08-20T15:03:43;10.75;;;3.97;;
73508;SDS011;72120;54.964;73.444;2023-08-20T15:06:09;11.80;;;4.35;;
73508;SDS011;72120;54.964;73.444;2023-08-20T15:08:36;10.75;;;3.88;;
73508;SDS011;72120;54.964;73.444;2023-08-20T15:11:02;13.75;;;3.60;;
73508;SDS011;72120;54.964;73.444;2023-08-20T15:13:30;10.48;;;4.13;;
73508;SDS011;72120;54.964;73.444;2023-08-20T15:15:57;8.80;;;4.13;;
73508;SDS011;72120;54.964;73.444;2023-08-20T15:18:23;13.90;;;4.05;;
73508;SDS011;72120;54.964;73.444;2023-08-20T15:20:54;9.68;;;4.20;;
73508;SDS011;72120;54.964;73.444;2023-08-20T15:23:22;10.90;;;4.25;;
73508;SDS011;72120;54.964;73.444;2023-08-20T15:25:52;12.48;;;4.82;;
73508;SDS011;72120;54.964;73.444;2023-08-20T15:28:23;21.02;;;9.40;;
73508;SDS011;72120;54.964;73.444;2023-08-20T15:30:56;24.40;;;12.90;;
73508;SDS011;72120;54.964;73.444;2023-08-20T15:33:23;19.17;;;9.98;;
73508;SDS011;72120;54.964;73.444;2023-08-20T15:35:49;11.40;;;5.50;;
73508;SDS011;72120;54.964;73.444;2023-08-20T15:40:44;10.23;;;5.32;;
73508;SDS011;72120;54.964;73.444;2023-08-20T15:43:10;11.68;;;5.90;;
73508;SDS011;72120;54.964;73.444;2023-08-20T15:45:36;16.25;;;6.50;;
73508;SDS011;72120;54.964;73.444;2023-08-20T15:48:02;11.93;;;6.55;;
73508;SDS011;72120;54.964;73.444;2023-08-20T15:50:29;14.50;;;6.57;;
73508;SDS011;72120;54.964;73.444;2023-08-20T15:52:56;12.70;;;6.50;;
73508;SDS011;72120;54.964;73.444;2023-08-20T15:55:22;13.88;;;6.45;;
73508;SDS011;72120;54.964;73.444;2023-08-20T15:57:49;18.50;;;6.82;;
73508;SDS011;72120;54.964;73.444;2023-08-20T16:00:18;14.98;;;6.70;;
73508;SDS011;72120;54.964;73.444;2023-08-20T16:02:45;19.00;;;10.18;;
73508;SDS011;72120;54.964;73.444;2023-08-20T16:05:12;15.35;;;7.63;;
73508;SDS011;72120;54.964;73.444;2023-08-20T16:07:39;18.90;;;9.68;;
73508;SDS011;72120;54.964;73.444;2023-08-20T16:10:06;30.67;;;14.75;;
73508;SDS011;72120;54.964;73.444;2023-08-20T16:12:36;36.00;;;17.02;;
73508;SDS011;72120;54.964;73.444;2023-08-20T16:15:04;16.95;;;8.55;;
73508;SDS011;72120;54.964;73.444;2023-08-20T16:17:31;7.30;;;4.22;;
73508;SDS011;72120;54.964;73.444;2023-08-20T16:19:58;10.25;;;4.35;;
73508;SDS011;72120;54.964;73.444;2023-08-20T16:22:25;11.88;;;4.53;;
73508;SDS011;72120;54.964;73.444;2023-08-20T16:24:52;9.93;;;4.70;;
73508;SDS011;72120;54.964;73.444;2023-08-20T16:27:18;12.63;;;4.30;;
73508;SDS011;72120;54.964;73.444;2023-08-20T16:29:44;11.43;;;3.97;;
73508;SDS011;72120;54.964;73.444;2023-08-20T16:32:10;10.27;;;3.42;;
73508;SDS011;72120;54.964;73.444;2023-08-20T16:34:38;11.55;;;3.88;;
73508;SDS011;72120;54.964;73.444;2023-08-20T16:37:04;9.55;;;3.60;;
73508;SDS011;72120;54.964;73.444;2023-08-20T16:39:31;13.98;;;3.42;;
73508;SDS011;72120;54.964;73.444;2023-08-20T16:41:57;9.15;;;3.10;;
73508;SDS011;72120;54.964;73.444;2023-08-20T16:44:33;12.25;;;3.65;;
73508;SDS011;72120;54.964;73.444;2023-08-20T16:46:59;7.75;;;3.47;;
73508;SDS011;72120;54.964;73.444;2023-08-20T16:49:26;9.95;;;3.35;;
73508;SDS011;72120;54.964;73.444;2023-08-20T16:51:52;8.57;;;3.33;;
73508;SDS011;72120;54.964;73.444;2023-08-20T16:54:19;7.72;;;3.20;;
73508;SDS011;72120;54.964;73.444;2023-08-20T16:56:45;6.32;;;3.08;;
73508;SDS011;72120;54.964;73.444;2023-08-20T16:59:11;6.63;;;3.38;;
73508;SDS011;72120;54.964;73.444;2023-08-20T17:01:37;6.95;;;3.53;;
73508;SDS011;72120;54.964;73.444;2023-08-20T17:04:03;7.80;;;3.38;;
73508;SDS011;72120;54.964;73.444;2023-08-20T17:06:29;6.68;;;3.53;;
73508;SDS011;72120;54.964;73.444;2023-08-20T17:08:55;7.35;;;3.50;;
73508;SDS011;72120;54.964;73.444;2023-08-20T17:11:22;6.03;;;2.90;;
73508;SDS011;72120;54.964;73.444;2023-08-20T17:13:48;9.05;;;3.45;;
73508;SDS011;72120;54.964;73.444;2023-08-20T17:16:14;11.75;;;3.40;;
73508;SDS011;72120;54.964;73.444;2023-08-20T17:18:41;6.20;;;2.90;;
73508;SDS011;72120;54.964;73.444;2023-08-20T17:21:07;7.07;;;3.20;;
73508;SDS011;72120;54.964;73.444;2023-08-20T17:23:33;8.20;;;3.30;;
73508;SDS011;72120;54.964;73.444;2023-08-20T17:25:59;13.88;;;3.83;;
73508;SDS011;72120;54.964;73.444;2023-08-20T17:30:52;9.35;;;3.47;;
73508;SDS011;72120;54.964;73.444;2023-08-20T17:33:19;8.57;;;3.20;;
73508;SDS011;72120;54.964;73.444;2023-08-20T17:35:45;10.60;;;3.13;;
73508;SDS011;72120;54.964;73.444;2023-08-20T17:38:20;10.50;;;3.53;;
73508;SDS011;72120;54.964;73.444;2023-08-20T17:40:47;9.57;;;3.42;;
73508;SDS011;72120;54.964;73.444;2023-08-20T17:43:13;8.90;;;3.42;;
73508;SDS011;72120;54.964;73.444;2023-08-20T17:45:40;6.90;;;3.38;;
73508;SDS011;72120;54.964;73.444;2023-08-20T17:48:07;10.95;;;3.50;;
73508;SDS011;72120;54.964;73.444;2023-08-20T17:50:36;6.80;;;3.30;;
73508;SDS011;72120;54.964;73.444;2023-08-20T17:53:02;6.72;;;3.38;;
73508;SDS011;72120;54.964;73.444;2023-08-20T17:55:35;7.13;;;3.17;;
73508;SDS011;72120;54.964;73.444;2023-08-20T17:58:01;6.72;;;3.00;;